Terminal Aerodrome Forecast
Issued by NWS Twin Cities, MN

Home | Current Version | Previous Version | Graphics & Text | Print | Product List | Glossary On
Versions: 1 2 3 4 5 6 7 8 9 10 11 12 13 14 15 16
703
FTUS43 KMPX 251434 AAA
TAFSTC
TAF AMD
KSTC 251434Z 2515/2612 35008KT P6SM FEW008 BKN110
     FM251800 36008KT P6SM SCT009 BKN020 OVC050
     FM252000 01008KT 4SM -SHRA BR OVC015
     FM260000 01012G20KT 2SM -RA BR OVC008=

USA.gov is the U.S. government's official web portal to all federal, state and local government web resources and services.